Time;durP1;ratioP1;P1;durP2;ratioP2;P2;SDS_P1;SDS_P2;PMS_P1;PMS_P2;Temp;Humidity;BMP_temperature;BMP_pressure;BME280_temperature;BME280_humidity;BME280_pressure;Samples;Min_cycle;Max_cycle;Signal;HPM_P1;HPM_P2
2023/12/08 00:01:08;;;;;;;18.65;9.18;;;;;;;;;;5095729;28;20027;-78
2023/12/08 00:03:33;;;;;;;18.43;8.80;;;;;;;;;;5100332;28;20024;-77
2023/12/08 00:05:58;;;;;;;18.83;9.38;;;;;;;;;;5106718;28;20256;-78
2023/12/08 00:08:27;;;;;;;17.38;9.05;;;;;;;;;;5108022;28;20024;-78
2023/12/08 00:10:52;;;;;;;17.65;8.88;;;;;;;;;;5102629;28;20024;-79
2023/12/08 00:13:18;;;;;;;16.85;8.88;;;;;;;;;;5101113;28;20544;-77
2023/12/08 00:15:43;;;;;;;15.40;8.30;;;;;;;;;;5099861;28;20055;-78
2023/12/08 00:18:08;;;;;;;16.38;8.45;;;;;;;;;;5098769;28;20268;-78
2023/12/08 00:20:33;;;;;;;18.48;8.93;;;;;;;;;;5097680;28;20024;-78
2023/12/08 00:22:59;;;;;;;20.55;8.95;;;;;;;;;;5097948;28;20107;-77
2023/12/08 00:25:24;;;;;;;15.18;8.90;;;;;;;;;;5098748;28;20020;-79
2023/12/08 00:27:49;;;;;;;14.95;8.27;;;;;;;;;;5098110;28;20058;-79
2023/12/08 00:30:15;;;;;;;13.93;8.30;;;;;;;;;;5098632;28;20024;-77
2023/12/08 00:32:40;;;;;;;15.48;7.57;;;;;;;;;;5096203;28;20484;-77
2023/12/08 00:35:12;;;;;;;16.30;8.10;;;;;;;;;;5100431;28;20051;-77
2023/12/08 00:37:40;;;;;;;14.63;7.53;;;;;;;;;;5098207;28;20024;-77
2023/12/08 00:40:08;;;;;;;16.48;8.25;;;;;;;;;;5097792;28;20019;-78
2023/12/08 00:42:33;;;;;;;16.75;8.25;;;;;;;;;;5097129;28;20483;-77
2023/12/08 00:44:58;;;;;;;18.50;8.13;;;;;;;;;;5096550;28;20054;-77
2023/12/08 00:47:23;;;;;;;14.60;8.30;;;;;;;;;;5099551;28;20024;-79
2023/12/08 00:49:52;;;;;;;17.90;8.65;;;;;;;;;;5095882;28;20024;-79
2023/12/08 00:52:18;;;;;;;19.27;8.55;;;;;;;;;;5095936;28;20067;-79
2023/12/08 00:54:43;;;;;;;17.85;8.93;;;;;;;;;;5096747;28;20036;-78
2023/12/08 00:57:08;;;;;;;14.82;7.40;;;;;;;;;;5098383;28;20024;-79
2023/12/08 00:59:34;;;;;;;17.48;8.70;;;;;;;;;;5098746;28;20585;-78
2023/12/08 01:01:59;;;;;;;19.05;9.05;;;;;;;;;;5100908;28;20020;-78
2023/12/08 01:04:24;;;;;;;17.27;8.75;;;;;;;;;;5104662;28;20038;-78
2023/12/08 01:06:49;;;;;;;19.95;8.88;;;;;;;;;;5105238;28;20035;-79
2023/12/08 01:09:15;;;;;;;16.90;8.82;;;;;;;;;;5098350;28;20028;-78
2023/12/08 01:11:40;;;;;;;18.90;9.50;;;;;;;;;;5101224;28;20032;-78
2023/12/08 01:14:05;;;;;;;18.92;9.57;;;;;;;;;;5099425;28;20521;-77
2023/12/08 01:16:30;;;;;;;18.42;9.25;;;;;;;;;;5097857;28;20032;-77
2023/12/08 01:18:56;;;;;;;17.48;8.68;;;;;;;;;;5098623;28;20024;-78
2023/12/08 01:21:21;;;;;;;18.63;8.13;;;;;;;;;;5099790;28;20028;-78
2023/12/08 01:23:46;;;;;;;17.98;8.73;;;;;;;;;;5097064;28;20085;-77
2023/12/08 01:26:11;;;;;;;18.67;8.40;;;;;;;;;;5097444;28;20032;-77
2023/12/08 01:28:36;;;;;;;18.48;8.68;;;;;;;;;;5096175;28;20505;-79
2023/12/08 01:31:03;;;;;;;15.65;8.18;;;;;;;;;;5094922;28;20024;-77
2023/12/08 01:33:28;;;;;;;19.38;9.15;;;;;;;;;;5096237;28;20042;-78
2023/12/08 01:35:53;;;;;;;15.27;7.85;;;;;;;;;;5096673;28;20073;-79
2023/12/08 01:38:19;;;;;;;16.70;8.68;;;;;;;;;;5095354;28;20661;-79
2023/12/08 01:40:44;;;;;;;18.42;8.75;;;;;;;;;;5095624;28;20567;-79
2023/12/08 01:43:11;;;;;;;13.43;7.53;;;;;;;;;;5097391;28;20020;-78
2023/12/08 01:45:37;;;;;;;17.65;8.70;;;;;;;;;;5097224;28;20016;-79
2023/12/08 01:48:02;;;;;;;13.85;6.63;;;;;;;;;;5098231;28;20032;-79
2023/12/08 01:50:28;;;;;;;15.93;8.60;;;;;;;;;;5100190;28;20069;-77
2023/12/08 01:52:54;;;;;;;17.60;8.80;;;;;;;;;;5097412;28;20031;-78
2023/12/08 01:55:19;;;;;;;16.67;8.20;;;;;;;;;;5097719;28;20024;-77
2023/12/08 01:57:44;;;;;;;17.45;8.68;;;;;;;;;;5097770;28;20101;-77
2023/12/08 02:00:10;;;;;;;19.30;8.13;;;;;;;;;;5098383;28;20023;-78
2023/12/08 02:02:36;;;;;;;17.42;8.38;;;;;;;;;;5097062;28;20020;-77
2023/12/08 02:05:02;;;;;;;12.20;6.55;;;;;;;;;;5097249;28;20028;-79
2023/12/08 02:07:28;;;;;;;19.25;8.55;;;;;;;;;;5094952;28;20492;-78
2023/12/08 02:09:53;;;;;;;17.05;8.43;;;;;;;;;;5096714;28;20035;-78
2023/12/08 02:12:19;;;;;;;18.55;8.93;;;;;;;;;;5097849;28;20093;-78
2023/12/08 02:14:50;;;;;;;14.52;7.88;;;;;;;;;;5095890;28;20390;-77
2023/12/08 02:17:28;;;;;;;13.35;6.07;;;;;;;;;;5097116;28;20028;-78
2023/12/08 02:19:54;;;;;;;16.20;7.57;;;;;;;;;;5095793;28;20028;-78
2023/12/08 02:22:23;;;;;;;16.10;8.38;;;;;;;;;;5098901;28;20028;-78
2023/12/08 02:24:49;;;;;;;12.80;6.55;;;;;;;;;;5098718;28;20054;-78
2023/12/08 02:27:15;;;;;;;12.85;7.28;;;;;;;;;;5098715;28;20016;-78
2023/12/08 02:29:40;;;;;;;15.25;7.57;;;;;;;;;;5098636;28;20394;-78
2023/12/08 02:32:32;;;;;;;16.65;7.57;;;;;;;;;;5098595;28;20016;-78
2023/12/08 02:35:01;;;;;;;14.80;7.07;;;;;;;;;;5098177;28;20028;-78
2023/12/08 02:37:30;;;;;;;14.65;7.65;;;;;;;;;;5096950;28;20572;-78
2023/12/08 02:39:57;;;;;;;15.23;8.25;;;;;;;;;;5097477;28;20051;-78
2023/12/08 02:42:22;;;;;;;14.63;6.88;;;;;;;;;;5097746;28;20031;-78
2023/12/08 02:44:47;;;;;;;9.63;5.25;;;;;;;;;;5097304;28;20024;-78
2023/12/08 02:47:12;;;;;;;13.43;7.35;;;;;;;;;;5097256;28;20043;-78
2023/12/08 02:49:38;;;;;;;12.85;7.22;;;;;;;;;;5097712;28;20028;-78
2023/12/08 02:52:03;;;;;;;15.85;7.75;;;;;;;;;;5098689;28;20505;-77
2023/12/08 02:54:28;;;;;;;17.85;9.88;;;;;;;;;;5099238;28;20471;-77
2023/12/08 02:56:57;;;;;;;19.55;8.75;;;;;;;;;;5097610;28;20028;-77
2023/12/08 02:59:22;;;;;;;18.02;7.45;;;;;;;;;;5098927;28;20502;-77
2023/12/08 03:01:47;;;;;;;21.45;9.50;;;;;;;;;;5098592;28;20024;-77
2023/12/08 03:04:12;;;;;;;18.23;9.10;;;;;;;;;;5098566;28;20051;-78
2023/12/08 03:06:37;;;;;;;19.40;9.90;;;;;;;;;;5103429;28;20092;-77
2023/12/08 03:09:04;;;;;;;12.30;6.95;;;;;;;;;;5103353;28;20036;-78
2023/12/08 03:11:29;;;;;;;16.10;7.72;;;;;;;;;;5103634;28;20024;-77
2023/12/08 03:13:54;;;;;;;20.60;9.82;;;;;;;;;;5102589;28;20552;-78
2023/12/08 03:16:19;;;;;;;16.73;8.23;;;;;;;;;;5100654;28;20491;-77
2023/12/08 03:18:44;;;;;;;9.82;5.63;;;;;;;;;;5098431;28;20482;-77
2023/12/08 03:21:20;;;;;;;20.15;10.05;;;;;;;;;;5099922;28;20516;-78
2023/12/08 03:23:45;;;;;;;17.55;9.85;;;;;;;;;;5100654;28;20024;-77
2023/12/08 03:26:10;;;;;;;17.77;8.82;;;;;;;;;;5102439;28;20020;-78
2023/12/08 03:28:35;;;;;;;14.00;7.57;;;;;;;;;;5105018;28;20028;-78
2023/12/08 03:31:01;;;;;;;17.10;8.30;;;;;;;;;;5101676;28;20024;-78
2023/12/08 03:33:26;;;;;;;16.02;9.25;;;;;;;;;;5101200;28;20030;-78
2023/12/08 03:35:51;;;;;;;19.17;8.88;;;;;;;;;;5104281;28;20028;-78
2023/12/08 03:38:16;;;;;;;20.58;9.05;;;;;;;;;;5101917;28;20031;-78
2023/12/08 03:40:41;;;;;;;18.02;8.82;;;;;;;;;;5102253;28;20050;-78
2023/12/08 03:43:07;;;;;;;15.07;7.38;;;;;;;;;;5101296;28;20020;-78
2023/12/08 03:45:32;;;;;;;19.38;9.77;;;;;;;;;;5103697;28;20072;-78
2023/12/08 03:47:57;;;;;;;18.33;8.63;;;;;;;;;;5102887;28;20028;-79
2023/12/08 03:50:22;;;;;;;9.15;5.57;;;;;;;;;;5105689;28;20035;-78
2023/12/08 03:52:52;;;;;;;17.63;8.63;;;;;;;;;;5105292;28;20028;-78
2023/12/08 03:55:18;;;;;;;16.42;8.20;;;;;;;;;;5106873;28;20023;-79
2023/12/08 03:57:43;;;;;;;25.35;9.00;;;;;;;;;;5112527;28;20051;-79
2023/12/08 04:00:10;;;;;;;15.98;8.38;;;;;;;;;;5112646;28;20031;-80
2023/12/08 04:02:36;;;;;;;14.73;6.53;;;;;;;;;;5104215;28;20027;-78
2023/12/08 04:05:01;;;;;;;13.10;6.95;;;;;;;;;;5098600;28;20402;-79
2023/12/08 04:07:26;;;;;;;14.75;7.60;;;;;;;;;;5098901;28;20031;-77
2023/12/08 04:09:51;;;;;;;15.85;6.78;;;;;;;;;;5097982;28;20040;-78
2023/12/08 04:12:17;;;;;;;14.25;7.03;;;;;;;;;;5098370;28;20028;-80
2023/12/08 04:14:42;;;;;;;16.90;7.13;;;;;;;;;;5100813;28;20024;-80
2023/12/08 04:17:07;;;;;;;10.20;5.45;;;;;;;;;;5100184;28;20031;-80
2023/12/08 04:19:32;;;;;;;15.70;7.97;;;;;;;;;;5098842;28;20032;-78
2023/12/08 04:21:57;;;;;;;15.20;7.43;;;;;;;;;;5100967;28;20027;-79
2023/12/08 04:24:23;;;;;;;7.80;4.00;;;;;;;;;;5102211;28;20028;-78
2023/12/08 04:26:48;;;;;;;9.95;4.18;;;;;;;;;;5102389;28;20264;-78
2023/12/08 04:29:13;;;;;;;15.13;7.68;;;;;;;;;;5103584;28;20028;-78
2023/12/08 04:31:38;;;;;;;14.90;7.95;;;;;;;;;;5102855;28;20028;-78
2023/12/08 04:34:04;;;;;;;13.65;7.10;;;;;;;;;;5102297;28;20047;-77
2023/12/08 04:36:31;;;;;;;14.25;7.32;;;;;;;;;;5104229;28;20035;-78
2023/12/08 04:38:56;;;;;;;15.48;7.20;;;;;;;;;;5105251;28;20023;-78
2023/12/08 04:41:21;;;;;;;12.90;7.13;;;;;;;;;;5102862;28;20016;-78
2023/12/08 04:43:47;;;;;;;13.80;7.27;;;;;;;;;;5104367;28;20062;-79
2023/12/08 04:46:12;;;;;;;13.43;6.38;;;;;;;;;;5102613;28;20264;-78
2023/12/08 04:48:37;;;;;;;14.85;7.00;;;;;;;;;;5102758;28;20031;-78
2023/12/08 04:51:03;;;;;;;14.60;6.97;;;;;;;;;;5101171;28;20152;-78
2023/12/08 04:53:28;;;;;;;12.48;6.07;;;;;;;;;;5101221;28;20031;-79
2023/12/08 04:55:54;;;;;;;13.98;7.05;;;;;;;;;;5102751;28;20106;-78
2023/12/08 04:58:20;;;;;;;11.70;6.40;;;;;;;;;;5098920;28;20058;-78
2023/12/08 05:00:46;;;;;;;14.00;6.40;;;;;;;;;;5098745;28;20049;-78
2023/12/08 05:03:11;;;;;;;14.10;6.78;;;;;;;;;;5100770;28;20387;-78
2023/12/08 05:05:38;;;;;;;12.82;6.13;;;;;;;;;;5099195;28;20421;-77
2023/12/08 05:08:03;;;;;;;7.35;4.07;;;;;;;;;;5099442;28;20020;-78
2023/12/08 05:10:28;;;;;;;11.13;5.40;;;;;;;;;;5100606;28;20051;-78
2023/12/08 05:12:53;;;;;;;12.25;5.93;;;;;;;;;;5098774;28;20028;-78
2023/12/08 05:15:19;;;;;;;8.07;3.95;;;;;;;;;;5097974;28;20043;-78
2023/12/08 05:17:45;;;;;;;11.07;5.07;;;;;;;;;;5100563;28;20019;-78
2023/12/08 05:20:12;;;;;;;11.93;5.72;;;;;;;;;;5100769;28;20028;-78
2023/12/08 05:22:37;;;;;;;11.50;5.13;;;;;;;;;;5098271;28;20552;-78
2023/12/08 05:25:03;;;;;;;9.40;5.38;;;;;;;;;;5100448;28;20024;-79
2023/12/08 05:27:28;;;;;;;10.82;5.38;;;;;;;;;;5098695;28;20077;-78
2023/12/08 05:29:54;;;;;;;11.65;5.20;;;;;;;;;;5099389;28;20028;-78
2023/12/08 05:32:19;;;;;;;7.65;3.35;;;;;;;;;;5100256;28;20039;-79
2023/12/08 05:34:44;;;;;;;9.93;5.20;;;;;;;;;;5098551;28;20036;-78
2023/12/08 05:37:10;;;;;;;8.02;4.30;;;;;;;;;;5101329;28;20035;-78
2023/12/08 05:39:35;;;;;;;10.57;5.55;;;;;;;;;;5101420;28;20032;-77
2023/12/08 05:42:00;;;;;;;8.32;4.32;;;;;;;;;;5099834;28;20020;-78
2023/12/08 05:44:26;;;;;;;10.90;5.47;;;;;;;;;;5098642;28;20471;-78
2023/12/08 05:46:51;;;;;;;10.98;5.15;;;;;;;;;;5099270;28;20053;-78
2023/12/08 05:49:17;;;;;;;11.55;5.63;;;;;;;;;;5101153;28;20109;-78
2023/12/08 05:51:43;;;;;;;9.55;5.13;;;;;;;;;;5099389;28;20443;-78
2023/12/08 05:54:08;;;;;;;10.07;5.25;;;;;;;;;;5101053;28;20051;-78
2023/12/08 05:56:34;;;;;;;7.43;4.53;;;;;;;;;;5100825;28;20078;-78
2023/12/08 05:58:59;;;;;;;8.80;4.57;;;;;;;;;;5099422;28;20032;-78
2023/12/08 06:01:25;;;;;;;5.68;3.30;;;;;;;;;;5101696;28;20027;-78
2023/12/08 06:03:51;;;;;;;10.05;5.25;;;;;;;;;;5100061;28;20052;-79
2023/12/08 06:06:16;;;;;;;9.18;4.90;;;;;;;;;;5096335;28;20027;-77
2023/12/08 06:08:42;;;;;;;7.90;4.20;;;;;;;;;;5098052;28;20032;-80
2023/12/08 06:11:07;;;;;;;8.80;4.13;;;;;;;;;;5104034;28;20035;-78
2023/12/08 06:13:34;;;;;;;6.93;3.80;;;;;;;;;;5106520;28;20036;-77
2023/12/08 06:16:00;;;;;;;9.57;5.25;;;;;;;;;;5100402;28;20088;-79
2023/12/08 06:18:25;;;;;;;10.32;5.57;;;;;;;;;;5098887;28;20044;-76
2023/12/08 06:20:51;;;;;;;9.90;5.15;;;;;;;;;;5096651;28;20107;-77
2023/12/08 06:23:16;;;;;;;7.15;4.15;;;;;;;;;;5094591;28;20115;-77
2023/12/08 06:25:41;;;;;;;10.70;4.28;;;;;;;;;;5093537;28;20020;-76
2023/12/08 06:28:06;;;;;;;6.85;3.70;;;;;;;;;;5092698;28;20046;-77
2023/12/08 06:30:32;;;;;;;9.68;4.95;;;;;;;;;;5093431;28;20653;-78
2023/12/08 06:32:57;;;;;;;9.30;4.45;;;;;;;;;;5093739;28;20031;-79
2023/12/08 06:35:22;;;;;;;11.82;5.55;;;;;;;;;;5096989;28;20024;-78
2023/12/08 06:37:48;;;;;;;8.50;4.45;;;;;;;;;;5097478;28;20111;-77
2023/12/08 06:40:13;;;;;;;12.18;4.97;;;;;;;;;;5096696;28;20388;-77
2023/12/08 06:42:38;;;;;;;7.22;3.33;;;;;;;;;;5096885;28;20031;-77
2023/12/08 06:45:07;;;;;;;8.48;4.32;;;;;;;;;;5095620;28;20058;-77
2023/12/08 06:47:32;;;;;;;9.50;4.75;;;;;;;;;;5095562;28;20479;-78
2023/12/08 06:49:58;;;;;;;9.45;5.35;;;;;;;;;;5096588;28;20032;-81
2023/12/08 06:52:23;;;;;;;13.93;5.75;;;;;;;;;;5094911;28;20032;-77
2023/12/08 06:54:49;;;;;;;7.22;3.78;;;;;;;;;;5094321;28;20032;-79
2023/12/08 06:57:14;;;;;;;8.40;4.97;;;;;;;;;;5093695;28;20022;-77
2023/12/08 06:59:39;;;;;;;10.50;5.40;;;;;;;;;;5094153;28;20084;-77
2023/12/08 07:02:04;;;;;;;7.47;4.07;;;;;;;;;;5093026;28;20016;-77
2023/12/08 07:04:30;;;;;;;7.70;3.53;;;;;;;;;;5094700;28;20036;-77
2023/12/08 07:06:55;;;;;;;9.43;5.13;;;;;;;;;;5093350;28;20035;-77
2023/12/08 07:09:20;;;;;;;5.03;2.70;;;;;;;;;;5093371;28;20028;-77
2023/12/08 07:11:45;;;;;;;9.02;4.15;;;;;;;;;;5091839;28;20043;-77
2023/12/08 07:14:11;;;;;;;7.63;3.50;;;;;;;;;;5093262;28;20107;-77
2023/12/08 07:16:36;;;;;;;9.23;4.68;;;;;;;;;;5093229;28;20063;-77
2023/12/08 07:19:01;;;;;;;6.93;3.40;;;;;;;;;;5091798;28;20062;-76
2023/12/08 07:21:26;;;;;;;8.07;4.40;;;;;;;;;;5094464;28;20026;-76
2023/12/08 07:23:51;;;;;;;9.45;4.13;;;;;;;;;;5093809;28;20059;-76
2023/12/08 07:26:17;;;;;;;5.50;2.83;;;;;;;;;;5091450;28;20024;-77
2023/12/08 07:28:42;;;;;;;5.43;2.80;;;;;;;;;;5093604;28;20020;-76
2023/12/08 07:31:08;;;;;;;7.82;3.10;;;;;;;;;;5091559;28;20072;-76
2023/12/08 07:33:33;;;;;;;6.78;2.65;;;;;;;;;;5092691;28;20077;-75
2023/12/08 07:35:59;;;;;;;7.95;3.90;;;;;;;;;;5091375;28;20119;-76
2023/12/08 07:38:24;;;;;;;7.47;3.72;;;;;;;;;;5095635;28;20360;-76
2023/12/08 07:40:49;;;;;;;9.27;4.93;;;;;;;;;;5095020;28;20502;-76
2023/12/08 07:43:14;;;;;;;6.30;3.75;;;;;;;;;;5096161;28;20471;-76
2023/12/08 07:45:40;;;;;;;9.63;4.00;;;;;;;;;;5096499;28;20054;-77
2023/12/08 07:48:05;;;;;;;10.45;4.82;;;;;;;;;;5095125;28;20028;-76
2023/12/08 07:50:30;;;;;;;9.88;5.18;;;;;;;;;;5094714;28;20020;-76
2023/12/08 07:52:58;;;;;;;13.07;4.85;;;;;;;;;;5094634;28;20024;-76
2023/12/08 07:55:24;;;;;;;13.45;5.82;;;;;;;;;;5094569;28;20455;-76
2023/12/08 07:57:49;;;;;;;7.50;4.28;;;;;;;;;;5095856;28;20024;-76
2023/12/08 08:00:15;;;;;;;13.43;4.90;;;;;;;;;;5096236;28;20027;-76
2023/12/08 08:02:40;;;;;;;9.13;5.40;;;;;;;;;;5095802;28;20016;-77
2023/12/08 08:05:06;;;;;;;12.15;5.18;;;;;;;;;;5095264;28;20040;-76
2023/12/08 08:07:31;;;;;;;11.95;6.05;;;;;;;;;;5096223;28;20032;-77
2023/12/08 08:09:56;;;;;;;9.80;4.72;;;;;;;;;;5094339;28;20024;-76
2023/12/08 08:12:24;;;;;;;6.63;3.40;;;;;;;;;;5094523;28;20036;-76
2023/12/08 08:14:49;;;;;;;5.55;2.97;;;;;;;;;;5095678;28;20024;-76
2023/12/08 08:17:15;;;;;;;9.77;4.03;;;;;;;;;;5095748;28;20459;-76
2023/12/08 08:19:41;;;;;;;8.68;4.85;;;;;;;;;;5094344;28;20027;-76
2023/12/08 08:22:06;;;;;;;9.38;5.13;;;;;;;;;;5094398;28;20028;-76
2023/12/08 08:24:32;;;;;;;7.00;3.63;;;;;;;;;;5094314;28;20410;-76
2023/12/08 08:26:57;;;;;;;5.38;3.08;;;;;;;;;;5095446;28;20060;-76
2023/12/08 08:29:22;;;;;;;9.98;4.78;;;;;;;;;;5095583;28;20109;-78
2023/12/08 08:31:47;;;;;;;6.55;4.07;;;;;;;;;;5095329;28;20067;-76
2023/12/08 08:34:13;;;;;;;12.80;6.18;;;;;;;;;;5095369;28;20032;-77
2023/12/08 08:36:38;;;;;;;10.55;5.40;;;;;;;;;;5094094;28;20016;-77
2023/12/08 08:39:03;;;;;;;4.88;2.47;;;;;;;;;;5095361;28;20103;-76
2023/12/08 08:41:29;;;;;;;11.18;5.80;;;;;;;;;;5095661;28;20117;-76
2023/12/08 08:43:54;;;;;;;9.93;5.28;;;;;;;;;;5095297;28;20494;-77
2023/12/08 08:46:20;;;;;;;10.18;4.32;;;;;;;;;;5094043;28;20028;-77
2023/12/08 08:48:45;;;;;;;13.68;5.85;;;;;;;;;;5094698;28;20023;-77
2023/12/08 08:51:10;;;;;;;10.13;4.63;;;;;;;;;;5095398;28;20028;-77
2023/12/08 08:53:36;;;;;;;7.85;4.43;;;;;;;;;;5093798;28;20024;-77
2023/12/08 08:56:02;;;;;;;7.78;4.47;;;;;;;;;;5095284;28;20031;-76
2023/12/08 08:58:28;;;;;;;7.57;2.85;;;;;;;;;;5095479;28;20028;-76
2023/12/08 09:00:53;;;;;;;10.05;4.68;;;;;;;;;;5095155;28;20397;-77
2023/12/08 09:03:18;;;;;;;10.43;4.75;;;;;;;;;;5095469;28;20020;-77
2023/12/08 09:05:43;;;;;;;11.13;5.38;;;;;;;;;;5093601;28;20085;-77
2023/12/08 09:08:09;;;;;;;13.60;5.75;;;;;;;;;;5095059;28;20028;-77
2023/12/08 09:10:35;;;;;;;9.57;4.65;;;;;;;;;;5095089;28;20020;-77
2023/12/08 09:13:00;;;;;;;10.90;4.97;;;;;;;;;;5094708;28;20063;-77
2023/12/08 09:15:26;;;;;;;10.27;4.88;;;;;;;;;;5095338;28;20039;-77
2023/12/08 09:17:51;;;;;;;10.55;5.57;;;;;;;;;;5093536;28;20524;-77
2023/12/08 09:20:17;;;;;;;8.20;4.90;;;;;;;;;;5093257;28;20030;-77
2023/12/08 09:22:42;;;;;;;8.20;4.60;;;;;;;;;;5093207;28;20023;-77
2023/12/08 09:25:08;;;;;;;10.23;4.80;;;;;;;;;;5095144;28;20019;-77
2023/12/08 09:27:34;;;;;;;8.55;4.10;;;;;;;;;;5094643;28;20526;-77
2023/12/08 09:29:59;;;;;;;8.93;4.60;;;;;;;;;;5094774;28;20024;-77
2023/12/08 09:32:24;;;;;;;7.13;3.95;;;;;;;;;;5094439;28;20032;-77
2023/12/08 09:34:49;;;;;;;9.57;4.55;;;;;;;;;;5095496;28;20031;-77
2023/12/08 09:37:15;;;;;;;9.25;4.70;;;;;;;;;;5095471;28;20024;-77
2023/12/08 09:39:40;;;;;;;7.47;3.85;;;;;;;;;;5094825;28;20031;-77
2023/12/08 09:42:30;;;;;;;7.75;4.03;;;;;;;;;;5096010;28;20020;-77
2023/12/08 09:44:55;;;;;;;7.47;3.55;;;;;;;;;;5095094;28;20028;-77
2023/12/08 09:47:22;;;;;;;8.70;4.88;;;;;;;;;;5095276;28;20497;-76
2023/12/08 09:49:49;;;;;;;7.85;3.42;;;;;;;;;;5095176;28;20045;-77
2023/12/08 09:52:15;;;;;;;11.60;5.25;;;;;;;;;;5096290;28;20460;-77
2023/12/08 09:54:41;;;;;;;10.75;4.75;;;;;;;;;;5096155;28;20123;-76
2023/12/08 09:57:09;;;;;;;9.80;4.25;;;;;;;;;;5095794;28;20113;-76
2023/12/08 09:59:36;;;;;;;10.95;4.60;;;;;;;;;;5093279;28;20032;-76
2023/12/08 10:02:02;;;;;;;8.65;4.60;;;;;;;;;;5094833;28;20020;-75
2023/12/08 10:04:28;;;;;;;10.63;5.03;;;;;;;;;;5095227;28;20023;-78
2023/12/08 10:06:56;;;;;;;9.23;4.45;;;;;;;;;;5094253;28;20457;-76
2023/12/08 10:09:22;;;;;;;9.15;4.57;;;;;;;;;;5095774;28;20032;-76
2023/12/08 10:11:47;;;;;;;8.35;4.63;;;;;;;;;;5095102;28;20097;-76
2023/12/08 10:14:14;;;;;;;8.63;4.38;;;;;;;;;;5095177;28;20471;-76
2023/12/08 10:16:39;;;;;;;9.63;5.13;;;;;;;;;;5094979;28;20122;-75
2023/12/08 10:19:09;;;;;;;8.73;4.70;;;;;;;;;;5095586;28;20028;-76
2023/12/08 10:21:34;;;;;;;8.38;4.18;;;;;;;;;;5095023;28;20027;-76
2023/12/08 10:24:00;;;;;;;7.70;4.38;;;;;;;;;;5093580;28;20020;-74
2023/12/08 10:26:26;;;;;;;8.07;4.20;;;;;;;;;;5093754;28;20024;-76
2023/12/08 10:28:55;;;;;;;8.68;4.75;;;;;;;;;;5094904;28;20431;-76
2023/12/08 10:31:21;;;;;;;10.45;5.07;;;;;;;;;;5095086;28;20016;-77
2023/12/08 10:33:50;;;;;;;5.68;3.17;;;;;;;;;;5093307;28;20031;-78
2023/12/08 10:36:16;;;;;;;7.03;4.00;;;;;;;;;;5092002;28;20097;-77
2023/12/08 10:38:41;;;;;;;9.00;4.70;;;;;;;;;;5093222;28;20490;-76
2023/12/08 10:41:10;;;;;;;9.40;4.78;;;;;;;;;;5093090;28;20020;-77
2023/12/08 10:43:39;;;;;;;6.95;3.35;;;;;;;;;;5091793;28;20551;-77
2023/12/08 10:46:06;;;;;;;8.80;4.70;;;;;;;;;;5093029;28;20031;-78
2023/12/08 10:48:32;;;;;;;8.90;3.85;;;;;;;;;;5091705;28;20073;-77
2023/12/08 10:50:58;;;;;;;4.90;2.65;;;;;;;;;;5091761;28;20020;-76
2023/12/08 10:53:23;;;;;;;3.72;2.35;;;;;;;;;;5092829;28;20537;-76
2023/12/08 10:56:05;;;;;;;9.10;4.15;;;;;;;;;;5091833;28;20560;-77
2023/12/08 10:58:34;;;;;;;8.48;3.78;;;;;;;;;;5092865;28;20032;-77
2023/12/08 11:01:01;;;;;;;5.82;3.53;;;;;;;;;;5092816;28;20022;-77
2023/12/08 11:03:32;;;;;;;4.00;3.03;;;;;;;;;;5093354;28;20027;-77
2023/12/08 11:06:11;;;;;;;11.32;4.90;;;;;;;;;;5092062;28;20030;-77
2023/12/08 11:08:42;;;;;;;8.77;5.03;;;;;;;;;;5092886;28;20032;-77
2023/12/08 11:11:08;;;;;;;6.28;3.45;;;;;;;;;;5093161;28;20090;-78
2023/12/08 11:13:38;;;;;;;7.43;4.50;;;;;;;;;;5095393;28;20056;-78
2023/12/08 11:16:18;;;;;;;6.72;3.75;;;;;;;;;;5097542;28;20053;-77
2023/12/08 11:18:44;;;;;;;11.60;5.45;;;;;;;;;;5095968;28;20020;-78
2023/12/08 11:21:11;;;;;;;10.45;5.40;;;;;;;;;;5096009;28;20027;-77
2023/12/08 11:23:38;;;;;;;9.38;4.03;;;;;;;;;;5095563;28;20017;-77
2023/12/08 11:26:35;;;;;;;10.00;5.15;;;;;;;;;;5095651;28;20027;-77
2023/12/08 11:29:28;;;;;;;12.85;5.20;;;;;;;;;;5097015;28;20024;-77
2023/12/08 11:32:17;;;;;;;6.10;3.40;;;;;;;;;;5096926;28;20031;-79
2023/12/08 11:34:49;;;;;;;8.65;4.50;;;;;;;;;;5096837;28;20089;-77
2023/12/08 11:37:16;;;;;;;6.22;3.38;;;;;;;;;;5097273;28;20023;-77
2023/12/08 11:39:41;;;;;;;4.65;2.80;;;;;;;;;;5098977;28;20028;-77
2023/12/08 11:42:09;;;;;;;5.70;3.15;;;;;;;;;;5105548;28;20038;-78
2023/12/08 11:44:35;;;;;;;11.82;5.57;;;;;;;;;;5105223;28;20087;-77
2023/12/08 11:47:00;;;;;;;11.20;5.10;;;;;;;;;;5101929;28;20035;-77
2023/12/08 11:49:26;;;;;;;9.80;4.60;;;;;;;;;;5096581;28;20103;-77
2023/12/08 11:52:14;;;;;;;9.57;4.55;;;;;;;;;;5098619;28;20066;-79
2023/12/08 11:55:20;;;;;;;9.65;4.72;;;;;;;;;;5101037;28;20027;-76
2023/12/08 11:57:54;;;;;;;10.18;5.07;;;;;;;;;;5096712;28;20033;-75
2023/12/08 12:00:21;;;;;;;5.88;2.50;;;;;;;;;;5094161;28;20024;-77
2023/12/08 12:02:48;;;;;;;8.43;4.30;;;;;;;;;;5095861;28;20024;-77
2023/12/08 12:05:13;;;;;;;12.32;5.70;;;;;;;;;;5097205;28;20440;-80
2023/12/08 12:07:40;;;;;;;15.48;6.15;;;;;;;;;;5096300;28;20016;-76
2023/12/08 12:10:10;;;;;;;9.52;4.90;;;;;;;;;;5096602;28;20032;-77
2023/12/08 12:12:36;;;;;;;9.95;5.72;;;;;;;;;;5094343;28;20066;-77
2023/12/08 12:15:04;;;;;;;8.55;3.92;;;;;;;;;;5094972;28;20062;-77
2023/12/08 12:17:29;;;;;;;8.90;4.10;;;;;;;;;;5094809;28;20048;-76
2023/12/08 12:19:55;;;;;;;11.20;5.80;;;;;;;;;;5095069;28;20371;-76
2023/12/08 12:22:21;;;;;;;9.38;5.60;;;;;;;;;;5096140;28;20445;-77
2023/12/08 12:24:46;;;;;;;12.60;6.28;;;;;;;;;;5094382;28;20097;-77
2023/12/08 12:27:12;;;;;;;9.57;5.50;;;;;;;;;;5095515;28;20063;-76
2023/12/08 12:29:37;;;;;;;6.80;3.50;;;;;;;;;;5094068;28;20078;-77
2023/12/08 12:32:05;;;;;;;8.23;4.22;;;;;;;;;;5095538;28;20024;-77
2023/12/08 12:34:30;;;;;;;11.25;6.07;;;;;;;;;;5095378;28;20048;-76
2023/12/08 12:36:55;;;;;;;9.75;4.88;;;;;;;;;;5095645;28;20055;-76
2023/12/08 12:39:21;;;;;;;11.97;5.53;;;;;;;;;;5095357;28;20027;-76
2023/12/08 12:41:46;;;;;;;13.70;5.18;;;;;;;;;;5093849;28;20249;-75
2023/12/08 12:44:11;;;;;;;12.77;6.20;;;;;;;;;;5095074;28;20023;-77
2023/12/08 12:46:41;;;;;;;10.07;5.10;;;;;;;;;;5095395;28;20249;-78
2023/12/08 12:49:06;;;;;;;13.32;5.60;;;;;;;;;;5093909;28;20027;-76
2023/12/08 12:51:34;;;;;;;12.05;6.28;;;;;;;;;;5094267;28;20027;-77
2023/12/08 12:54:00;;;;;;;8.13;4.47;;;;;;;;;;5094214;28;20035;-76
2023/12/08 12:56:26;;;;;;;8.68;4.78;;;;;;;;;;5094886;28;20363;-76
2023/12/08 12:59:05;;;;;;;12.48;6.07;;;;;;;;;;5093624;28;20026;-77
2023/12/08 13:01:31;;;;;;;11.65;5.88;;;;;;;;;;5094630;28;20028;-76
2023/12/08 13:03:57;;;;;;;16.20;6.75;;;;;;;;;;5095338;28;20027;-76
2023/12/08 13:06:31;;;;;;;14.73;6.78;;;;;;;;;;5095089;28;20433;-76
2023/12/08 13:09:00;;;;;;;14.27;6.28;;;;;;;;;;5093286;28;20028;-77
2023/12/08 13:11:26;;;;;;;9.95;5.05;;;;;;;;;;5094651;28;20059;-76
2023/12/08 13:13:52;;;;;;;12.25;6.13;;;;;;;;;;5094849;28;20044;-75
2023/12/08 13:16:17;;;;;;;11.50;6.18;;;;;;;;;;5094528;28;20475;-76
2023/12/08 13:18:44;;;;;;;8.73;4.75;;;;;;;;;;5094937;28;20028;-76
2023/12/08 13:21:09;;;;;;;10.40;5.00;;;;;;;;;;5093109;28;20479;-76
2023/12/08 13:23:35;;;;;;;10.68;5.53;;;;;;;;;;5093699;28;20027;-77
2023/12/08 13:26:00;;;;;;;11.27;5.80;;;;;;;;;;5093759;28;20032;-76
2023/12/08 13:28:25;;;;;;;12.50;6.55;;;;;;;;;;5093320;28;20023;-75
2023/12/08 13:30:51;;;;;;;15.77;6.40;;;;;;;;;;5094629;28;20137;-76
2023/12/08 13:33:16;;;;;;;13.80;6.32;;;;;;;;;;5094037;28;20028;-76
2023/12/08 13:35:41;;;;;;;13.87;5.97;;;;;;;;;;5094073;28;20019;-76
2023/12/08 13:38:06;;;;;;;11.47;6.00;;;;;;;;;;5095527;28;20275;-77
2023/12/08 13:40:32;;;;;;;8.50;5.13;;;;;;;;;;5092745;28;20257;-77
2023/12/08 13:42:57;;;;;;;14.98;7.50;;;;;;;;;;5093139;28;20055;-77
2023/12/08 13:45:22;;;;;;;13.63;6.80;;;;;;;;;;5092936;28;20070;-77
2023/12/08 13:47:47;;;;;;;13.80;6.53;;;;;;;;;;5096293;28;20256;-76
2023/12/08 13:50:12;;;;;;;16.85;6.53;;;;;;;;;;5094719;28;20278;-76
2023/12/08 13:52:38;;;;;;;12.80;5.53;;;;;;;;;;5094923;28;20024;-77
2023/12/08 13:55:03;;;;;;;11.67;6.20;;;;;;;;;;5092962;28;20314;-77
2023/12/08 13:57:28;;;;;;;15.20;7.18;;;;;;;;;;5094313;28;20253;-77
2023/12/08 13:59:54;;;;;;;14.03;6.17;;;;;;;;;;5092910;28;20028;-77
2023/12/08 14:02:19;;;;;;;12.13;6.35;;;;;;;;;;5092916;28;20344;-76
2023/12/08 14:04:44;;;;;;;10.82;6.03;;;;;;;;;;5093145;28;20031;-76
2023/12/08 14:07:10;;;;;;;16.97;6.27;;;;;;;;;;5094209;28;20023;-77
2023/12/08 14:09:35;;;;;;;11.13;5.35;;;;;;;;;;5094103;28;20397;-77
2023/12/08 14:12:00;;;;;;;13.97;7.47;;;;;;;;;;5094419;28;20056;-78
2023/12/08 14:14:26;;;;;;;26.33;11.38;;;;;;;;;;5098651;28;20310;-77
2023/12/08 14:16:52;;;;;;;18.27;7.60;;;;;;;;;;5094292;28;20075;-77
2023/12/08 14:19:17;;;;;;;16.13;7.40;;;;;;;;;;5095384;28;20468;-78
2023/12/08 14:21:43;;;;;;;21.25;9.10;;;;;;;;;;5095416;28;20478;-77
2023/12/08 14:24:08;;;;;;;15.40;7.78;;;;;;;;;;5095534;28;20028;-77
2023/12/08 14:26:34;;;;;;;14.82;7.43;;;;;;;;;;5093638;28;20027;-79
2023/12/08 14:29:09;;;;;;;13.77;6.95;;;;;;;;;;5094778;28;20418;-78
2023/12/08 14:31:34;;;;;;;15.98;7.20;;;;;;;;;;5096122;28;20043;-79